South Hadley Falls, Massachusetts
Current Conditions -  °F | °C
As of 3:19 PM on Sunday 21 Dec 2014 (Local Time) from KCEF Reporting Station
Light Snow Light Snow  
Wind Chill: 26°   Ceiling: 1000
Heat Index: 32°   Visibility: 7mi
Dew Point: 30°   Wind: 6mph
Humidity: 93%   Direction: 360°N
Pressure: 30.29"   Gusts: NA
Location:  42.2564°N, 72.5775°W
Report Text: KCEF 212019Z 36005KT 7SM -SN OVC010 00/M01 A3029 RMK AO2A
Loading
Personal Weather Stations






























Interactive Weather Map New forecast layout! Learn more

10-Day Weather Forecast

Advertisements
Track Severe Weather on mobile